sensor_id;sensor_type;location;lat;lon;timestamp;temperature;humidity
26907;DHT22;14472;56.880;16.658;2023-08-06T00:00:24;17.40;1.00
26907;DHT22;14472;56.880;16.658;2023-08-06T00:02:49;17.30;1.00
26907;DHT22;14472;56.880;16.658;2023-08-06T00:05:16;17.30;1.00
26907;DHT22;14472;56.880;16.658;2023-08-06T00:07:47;17.30;1.00
26907;DHT22;14472;56.880;16.658;2023-08-06T00:10:12;17.30;1.00
26907;DHT22;14472;56.880;16.658;2023-08-06T00:12:38;17.30;1.00
26907;DHT22;14472;56.880;16.658;2023-08-06T00:15:04;17.30;1.00
26907;DHT22;14472;56.880;16.658;2023-08-06T00:17:30;17.30;1.00
26907;DHT22;14472;56.880;16.658;2023-08-06T00:19:56;17.20;1.00
26907;DHT22;14472;56.880;16.658;2023-08-06T00:22:22;17.20;1.00
26907;DHT22;14472;56.880;16.658;2023-08-06T00:24:47;17.20;1.00
26907;DHT22;14472;56.880;16.658;2023-08-06T00:27:13;17.20;1.00
26907;DHT22;14472;56.880;16.658;2023-08-06T00:29:39;17.20;1.00
26907;DHT22;14472;56.880;16.658;2023-08-06T00:32:04;17.20;1.00
26907;DHT22;14472;56.880;16.658;2023-08-06T00:34:30;17.20;1.00
26907;DHT22;14472;56.880;16.658;2023-08-06T00:36:56;17.20;1.00
26907;DHT22;14472;56.880;16.658;2023-08-06T00:39:22;17.20;1.00
26907;DHT22;14472;56.880;16.658;2023-08-06T00:41:48;17.20;1.00
26907;DHT22;14472;56.880;16.658;2023-08-06T00:44:14;17.20;1.00
26907;DHT22;14472;56.880;16.658;2023-08-06T00:46:39;17.20;1.00
26907;DHT22;14472;56.880;16.658;2023-08-06T00:49:05;17.20;1.00
26907;DHT22;14472;56.880;16.658;2023-08-06T00:51:32;17.20;1.00
26907;DHT22;14472;56.880;16.658;2023-08-06T00:53:58;17.10;1.00
26907;DHT22;14472;56.880;16.658;2023-08-06T00:56:24;17.10;1.00
26907;DHT22;14472;56.880;16.658;2023-08-06T00:58:51;17.10;1.00
26907;DHT22;14472;56.880;16.658;2023-08-06T01:01:17;17.10;1.00
26907;DHT22;14472;56.880;16.658;2023-08-06T01:03:43;17.10;1.00
26907;DHT22;14472;56.880;16.658;2023-08-06T01:06:09;17.10;1.00
26907;DHT22;14472;56.880;16.658;2023-08-06T01:09:01;17.10;1.00
26907;DHT22;14472;56.880;16.658;2023-08-06T01:11:38;17.20;1.00
26907;DHT22;14472;56.880;16.658;2023-08-06T01:14:28;17.10;1.00
26907;DHT22;14472;56.880;16.658;2023-08-06T01:16:57;17.10;1.80
26907;DHT22;14472;56.880;16.658;2023-08-06T01:19:23;17.10;2.20
26907;DHT22;14472;56.880;16.658;2023-08-06T01:21:49;17.10;1.30
26907;DHT22;14472;56.880;16.658;2023-08-06T01:24:15;17.10;2.90
26907;DHT22;14472;56.880;16.658;2023-08-06T01:27:08;17.10;1.50
26907;DHT22;14472;56.880;16.658;2023-08-06T01:29:39;17.10;2.70
26907;DHT22;14472;56.880;16.658;2023-08-06T01:32:08;17.10;3.30
26907;DHT22;14472;56.880;16.658;2023-08-06T01:34:39;17.10;4.60
26907;DHT22;14472;56.880;16.658;2023-08-06T01:37:06;17.00;6.20
26907;DHT22;14472;56.880;16.658;2023-08-06T01:39:35;17.10;8.90
26907;DHT22;14472;56.880;16.658;2023-08-06T01:42:01;17.10;12.00
26907;DHT22;14472;56.880;16.658;2023-08-06T01:44:27;17.10;18.60
26907;DHT22;14472;56.880;16.658;2023-08-06T01:46:53;17.10;27.20
26907;DHT22;14472;56.880;16.658;2023-08-06T01:49:19;17.10;32.20
26907;DHT22;14472;56.880;16.658;2023-08-06T01:51:44;17.20;36.90
26907;DHT22;14472;56.880;16.658;2023-08-06T01:54:10;17.20;39.70
26907;DHT22;14472;56.880;16.658;2023-08-06T01:56:36;17.20;42.00
26907;DHT22;14472;56.880;16.658;2023-08-06T01:59:01;17.20;40.70
26907;DHT22;14472;56.880;16.658;2023-08-06T02:01:27;17.20;40.90
26907;DHT22;14472;56.880;16.658;2023-08-06T02:03:53;17.20;40.80
26907;DHT22;14472;56.880;16.658;2023-08-06T02:06:18;17.20;39.10
26907;DHT22;14472;56.880;16.658;2023-08-06T02:08:44;17.20;42.00
26907;DHT22;14472;56.880;16.658;2023-08-06T02:11:10;17.20;43.40
26907;DHT22;14472;56.880;16.658;2023-08-06T02:13:36;17.30;44.80
26907;DHT22;14472;56.880;16.658;2023-08-06T02:16:01;17.30;46.30
26907;DHT22;14472;56.880;16.658;2023-08-06T02:18:27;17.30;48.80
26907;DHT22;14472;56.880;16.658;2023-08-06T02:20:57;17.30;51.10
26907;DHT22;14472;56.880;16.658;2023-08-06T02:23:24;17.30;52.30
26907;DHT22;14472;56.880;16.658;2023-08-06T02:26:00;17.30;50.00
26907;DHT22;14472;56.880;16.658;2023-08-06T02:28:26;17.30;55.80
26907;DHT22;14472;56.880;16.658;2023-08-06T02:30:52;17.30;54.70
26907;DHT22;14472;56.880;16.658;2023-08-06T02:33:18;17.30;54.80
26907;DHT22;14472;56.880;16.658;2023-08-06T02:35:43;17.30;56.10
26907;DHT22;14472;56.880;16.658;2023-08-06T02:38:09;17.30;57.80
26907;DHT22;14472;56.880;16.658;2023-08-06T02:40:35;17.30;60.70
26907;DHT22;14472;56.880;16.658;2023-08-06T02:43:01;17.40;62.90
26907;DHT22;14472;56.880;16.658;2023-08-06T02:45:26;17.40;65.00
26907;DHT22;14472;56.880;16.658;2023-08-06T02:47:52;17.40;69.30
26907;DHT22;14472;56.880;16.658;2023-08-06T02:50:18;17.40;71.10
26907;DHT22;14472;56.880;16.658;2023-08-06T02:52:43;17.40;69.90
26907;DHT22;14472;56.880;16.658;2023-08-06T02:55:09;17.40;70.10
26907;DHT22;14472;56.880;16.658;2023-08-06T02:57:35;17.40;68.70
26907;DHT22;14472;56.880;16.658;2023-08-06T03:00:01;17.40;70.60
26907;DHT22;14472;56.880;16.658;2023-08-06T03:02:26;17.40;64.20
26907;DHT22;14472;56.880;16.658;2023-08-06T03:04:52;17.40;62.00
26907;DHT22;14472;56.880;16.658;2023-08-06T03:07:18;17.40;61.70
26907;DHT22;14472;56.880;16.658;2023-08-06T03:09:43;17.40;59.60
26907;DHT22;14472;56.880;16.658;2023-08-06T03:12:09;17.40;60.20
26907;DHT22;14472;56.880;16.658;2023-08-06T03:14:35;17.40;61.40
26907;DHT22;14472;56.880;16.658;2023-08-06T03:17:00;17.40;60.50
26907;DHT22;14472;56.880;16.658;2023-08-06T03:19:26;17.30;62.70
26907;DHT22;14472;56.880;16.658;2023-08-06T03:21:52;17.30;62.10
26907;DHT22;14472;56.880;16.658;2023-08-06T03:24:17;17.40;63.90
26907;DHT22;14472;56.880;16.658;2023-08-06T03:26:43;17.40;64.00
26907;DHT22;14472;56.880;16.658;2023-08-06T03:29:09;17.40;65.30
26907;DHT22;14472;56.880;16.658;2023-08-06T03:31:34;17.40;66.00
26907;DHT22;14472;56.880;16.658;2023-08-06T03:34:00;17.40;61.60
26907;DHT22;14472;56.880;16.658;2023-08-06T03:36:26;17.40;61.90
26907;DHT22;14472;56.880;16.658;2023-08-06T03:38:52;17.40;61.50
26907;DHT22;14472;56.880;16.658;2023-08-06T03:41:17;17.40;58.60
26907;DHT22;14472;56.880;16.658;2023-08-06T03:43:43;17.40;57.60
26907;DHT22;14472;56.880;16.658;2023-08-06T03:46:09;17.40;57.30
26907;DHT22;14472;56.880;16.658;2023-08-06T03:48:34;17.40;57.30
26907;DHT22;14472;56.880;16.658;2023-08-06T03:51:00;17.40;53.00
26907;DHT22;14472;56.880;16.658;2023-08-06T03:53:27;17.40;46.90
26907;DHT22;14472;56.880;16.658;2023-08-06T03:55:53;17.40;49.30
26907;DHT22;14472;56.880;16.658;2023-08-06T03:58:19;17.40;49.10
26907;DHT22;14472;56.880;16.658;2023-08-06T04:00:44;17.40;46.60
26907;DHT22;14472;56.880;16.658;2023-08-06T04:03:10;17.40;46.90
26907;DHT22;14472;56.880;16.658;2023-08-06T04:05:35;17.40;47.60
26907;DHT22;14472;56.880;16.658;2023-08-06T04:08:01;17.40;44.90
26907;DHT22;14472;56.880;16.658;2023-08-06T04:10:27;17.40;46.60
26907;DHT22;14472;56.880;16.658;2023-08-06T04:12:53;17.40;41.70
26907;DHT22;14472;56.880;16.658;2023-08-06T04:15:18;17.40;44.90
26907;DHT22;14472;56.880;16.658;2023-08-06T04:17:44;17.40;39.60
26907;DHT22;14472;56.880;16.658;2023-08-06T04:20:10;17.40;32.00
26907;DHT22;14472;56.880;16.658;2023-08-06T04:22:35;17.50;35.10
26907;DHT22;14472;56.880;16.658;2023-08-06T04:25:01;17.40;32.00
26907;DHT22;14472;56.880;16.658;2023-08-06T04:27:27;17.50;34.50
26907;DHT22;14472;56.880;16.658;2023-08-06T04:29:53;17.50;30.00
26907;DHT22;14472;56.880;16.658;2023-08-06T04:32:19;17.50;29.80
26907;DHT22;14472;56.880;16.658;2023-08-06T04:34:45;17.40;27.10
26907;DHT22;14472;56.880;16.658;2023-08-06T04:37:10;17.50;26.10
26907;DHT22;14472;56.880;16.658;2023-08-06T04:39:36;17.50;24.00
26907;DHT22;14472;56.880;16.658;2023-08-06T04:42:02;17.50;23.70
26907;DHT22;14472;56.880;16.658;2023-08-06T04:44:28;17.50;26.50
26907;DHT22;14472;56.880;16.658;2023-08-06T04:46:54;17.50;30.50
26907;DHT22;14472;56.880;16.658;2023-08-06T04:49:23;17.50;35.80
26907;DHT22;14472;56.880;16.658;2023-08-06T04:51:49;17.50;40.90
26907;DHT22;14472;56.880;16.658;2023-08-06T04:54:14;17.50;45.10
26907;DHT22;14472;56.880;16.658;2023-08-06T04:56:40;17.50;50.10
26907;DHT22;14472;56.880;16.658;2023-08-06T04:59:06;17.60;53.90
26907;DHT22;14472;56.880;16.658;2023-08-06T05:01:32;17.60;55.70
26907;DHT22;14472;56.880;16.658;2023-08-06T05:03:57;17.60;57.50
26907;DHT22;14472;56.880;16.658;2023-08-06T05:06:23;17.60;61.00
26907;DHT22;14472;56.880;16.658;2023-08-06T05:08:49;17.60;66.50
26907;DHT22;14472;56.880;16.658;2023-08-06T05:11:14;17.60;71.30
26907;DHT22;14472;56.880;16.658;2023-08-06T05:13:40;17.70;80.40
26907;DHT22;14472;56.880;16.658;2023-08-06T05:16:06;17.70;86.00
26907;DHT22;14472;56.880;16.658;2023-08-06T05:18:31;17.80;92.80
26907;DHT22;14472;56.880;16.658;2023-08-06T05:20:59;17.70;95.70
26907;DHT22;14472;56.880;16.658;2023-08-06T05:23:25;17.80;98.80
26907;DHT22;14472;56.880;16.658;2023-08-06T05:25:51;17.80;99.90
26907;DHT22;14472;56.880;16.658;2023-08-06T05:28:17;17.80;99.90
26907;DHT22;14472;56.880;16.658;2023-08-06T05:30:42;17.90;99.90
26907;DHT22;14472;56.880;16.658;2023-08-06T05:33:08;17.90;99.90
26907;DHT22;14472;56.880;16.658;2023-08-06T05:35:34;17.90;99.90
26907;DHT22;14472;56.880;16.658;2023-08-06T05:38:00;17.90;99.90
26907;DHT22;14472;56.880;16.658;2023-08-06T05:40:25;17.90;99.90
26907;DHT22;14472;56.880;16.658;2023-08-06T05:42:54;17.90;99.90
26907;DHT22;14472;56.880;16.658;2023-08-06T05:45:20;18.00;99.90
26907;DHT22;14472;56.880;16.658;2023-08-06T05:47:48;18.00;99.90
26907;DHT22;14472;56.880;16.658;2023-08-06T05:50:14;18.00;99.90
26907;DHT22;14472;56.880;16.658;2023-08-06T05:52:39;18.00;99.90
26907;DHT22;14472;56.880;16.658;2023-08-06T05:55:05;18.10;99.90
26907;DHT22;14472;56.880;16.658;2023-08-06T05:57:31;18.10;99.90
26907;DHT22;14472;56.880;16.658;2023-08-06T05:59:57;18.10;99.90
26907;DHT22;14472;56.880;16.658;2023-08-06T06:02:22;18.10;99.90
26907;DHT22;14472;56.880;16.658;2023-08-06T06:04:48;18.20;99.90
26907;DHT22;14472;56.880;16.658;2023-08-06T06:07:14;18.20;99.90
26907;DHT22;14472;56.880;16.658;2023-08-06T06:09:40;18.20;99.90
26907;DHT22;14472;56.880;16.658;2023-08-06T06:12:06;18.20;99.90
26907;DHT22;14472;56.880;16.658;2023-08-06T06:14:32;18.20;99.90
26907;DHT22;14472;56.880;16.658;2023-08-06T06:16:58;18.20;99.90
26907;DHT22;14472;56.880;16.658;2023-08-06T06:19:24;18.20;99.90
26907;DHT22;14472;56.880;16.658;2023-08-06T06:21:50;18.20;99.90
26907;DHT22;14472;56.880;16.658;2023-08-06T06:24:15;18.20;99.90
26907;DHT22;14472;56.880;16.658;2023-08-06T06:26:41;18.30;99.90
26907;DHT22;14472;56.880;16.658;2023-08-06T06:29:07;18.30;99.90
26907;DHT22;14472;56.880;16.658;2023-08-06T06:31:32;18.30;99.90
26907;DHT22;14472;56.880;16.658;2023-08-06T06:33:58;18.30;99.90
26907;DHT22;14472;56.880;16.658;2023-08-06T06:36:24;18.30;99.90
26907;DHT22;14472;56.880;16.658;2023-08-06T06:38:49;18.30;99.90
26907;DHT22;14472;56.880;16.658;2023-08-06T06:41:15;18.30;99.90
26907;DHT22;14472;56.880;16.658;2023-08-06T06:43:41;18.40;99.90
26907;DHT22;14472;56.880;16.658;2023-08-06T06:46:07;18.40;99.90
26907;DHT22;14472;56.880;16.658;2023-08-06T06:48:33;18.40;99.90
26907;DHT22;14472;56.880;16.658;2023-08-06T06:50:59;18.40;99.90
26907;DHT22;14472;56.880;16.658;2023-08-06T06:53:25;18.40;99.90
26907;DHT22;14472;56.880;16.658;2023-08-06T06:56:02;18.40;99.90
26907;DHT22;14472;56.880;16.658;2023-08-06T06:58:27;18.40;99.90
26907;DHT22;14472;56.880;16.658;2023-08-06T07:00:53;18.40;99.90
26907;DHT22;14472;56.880;16.658;2023-08-06T07:03:20;18.40;99.90
26907;DHT22;14472;56.880;16.658;2023-08-06T07:05:46;18.40;99.90
26907;DHT22;14472;56.880;16.658;2023-08-06T07:08:12;18.40;99.90
26907;DHT22;14472;56.880;16.658;2023-08-06T07:10:40;18.40;99.90
26907;DHT22;14472;56.880;16.658;2023-08-06T07:13:05;18.40;99.90
26907;DHT22;14472;56.880;16.658;2023-08-06T07:15:32;18.40;99.90
26907;DHT22;14472;56.880;16.658;2023-08-06T07:17:57;18.40;99.90
26907;DHT22;14472;56.880;16.658;2023-08-06T07:20:23;18.40;99.90
26907;DHT22;14472;56.880;16.658;2023-08-06T07:22:49;18.30;99.90
26907;DHT22;14472;56.880;16.658;2023-08-06T07:25:16;18.30;99.90
26907;DHT22;14472;56.880;16.658;2023-08-06T07:27:42;18.30;99.90
26907;DHT22;14472;56.880;16.658;2023-08-06T07:30:08;18.20;99.90
26907;DHT22;14472;56.880;16.658;2023-08-06T07:32:34;18.30;99.90
26907;DHT22;14472;56.880;16.658;2023-08-06T07:35:00;18.20;99.90
26907;DHT22;14472;56.880;16.658;2023-08-06T07:37:29;18.20;99.90
26907;DHT22;14472;56.880;16.658;2023-08-06T07:39:56;18.20;99.90
26907;DHT22;14472;56.880;16.658;2023-08-06T07:42:22;18.20;99.90
26907;DHT22;14472;56.880;16.658;2023-08-06T07:44:55;18.20;99.90
26907;DHT22;14472;56.880;16.658;2023-08-06T07:47:21;18.20;99.90
26907;DHT22;14472;56.880;16.658;2023-08-06T07:49:47;18.20;99.90
26907;DHT22;14472;56.880;16.658;2023-08-06T07:52:13;18.10;99.90
26907;DHT22;14472;56.880;16.658;2023-08-06T07:54:38;18.10;99.90
26907;DHT22;14472;56.880;16.658;2023-08-06T07:57:04;18.10;99.90
26907;DHT22;14472;56.880;16.658;2023-08-06T07:59:30;18.10;99.90
26907;DHT22;14472;56.880;16.658;2023-08-06T08:01:56;18.10;99.90
26907;DHT22;14472;56.880;16.658;2023-08-06T08:04:22;18.10;99.90
26907;DHT22;14472;56.880;16.658;2023-08-06T08:06:47;18.00;99.90
26907;DHT22;14472;56.880;16.658;2023-08-06T08:09:13;18.00;99.90
26907;DHT22;14472;56.880;16.658;2023-08-06T08:11:41;17.90;99.90
26907;DHT22;14472;56.880;16.658;2023-08-06T08:14:07;17.90;99.90
26907;DHT22;14472;56.880;16.658;2023-08-06T08:16:33;17.90;99.90
26907;DHT22;14472;56.880;16.658;2023-08-06T08:18:59;17.80;99.90
26907;DHT22;14472;56.880;16.658;2023-08-06T08:21:25;17.80;99.90
26907;DHT22;14472;56.880;16.658;2023-08-06T08:23:51;17.80;99.90
26907;DHT22;14472;56.880;16.658;2023-08-06T08:26:17;17.80;99.90
26907;DHT22;14472;56.880;16.658;2023-08-06T08:28:43;17.70;99.90
26907;DHT22;14472;56.880;16.658;2023-08-06T08:31:09;17.70;99.90
26907;DHT22;14472;56.880;16.658;2023-08-06T08:33:35;17.70;99.90
26907;DHT22;14472;56.880;16.658;2023-08-06T08:36:00;17.60;99.90
26907;DHT22;14472;56.880;16.658;2023-08-06T08:38:26;17.60;99.90
26907;DHT22;14472;56.880;16.658;2023-08-06T08:40:53;17.50;99.90
26907;DHT22;14472;56.880;16.658;2023-08-06T08:43:22;17.50;99.90
26907;DHT22;14472;56.880;16.658;2023-08-06T08:45:52;17.50;99.90
26907;DHT22;14472;56.880;16.658;2023-08-06T08:48:21;17.40;99.90
26907;DHT22;14472;56.880;16.658;2023-08-06T08:50:49;17.40;99.90
26907;DHT22;14472;56.880;16.658;2023-08-06T08:53:16;17.40;99.90
26907;DHT22;14472;56.880;16.658;2023-08-06T08:55:48;17.40;99.90
26907;DHT22;14472;56.880;16.658;2023-08-06T08:58:15;17.40;99.90
26907;DHT22;14472;56.880;16.658;2023-08-06T09:00:46;17.30;99.90
26907;DHT22;14472;56.880;16.658;2023-08-06T09:03:13;17.30;99.90
26907;DHT22;14472;56.880;16.658;2023-08-06T09:05:44;17.30;99.90
26907;DHT22;14472;56.880;16.658;2023-08-06T09:08:12;17.30;99.90
26907;DHT22;14472;56.880;16.658;2023-08-06T09:10:43;17.20;99.90
26907;DHT22;14472;56.880;16.658;2023-08-06T09:13:09;17.20;99.90
26907;DHT22;14472;56.880;16.658;2023-08-06T09:15:35;17.20;99.90
26907;DHT22;14472;56.880;16.658;2023-08-06T09:18:09;17.20;99.90
26907;DHT22;14472;56.880;16.658;2023-08-06T09:20:37;17.10;99.90
26907;DHT22;14472;56.880;16.658;2023-08-06T09:23:10;16.90;99.90
26907;DHT22;14472;56.880;16.658;2023-08-06T09:25:39;16.90;99.90
26907;DHT22;14472;56.880;16.658;2023-08-06T09:28:08;16.90;99.90
26907;DHT22;14472;56.880;16.658;2023-08-06T09:30:36;16.90;99.90
26907;DHT22;14472;56.880;16.658;2023-08-06T09:33:02;16.80;99.90
26907;DHT22;14472;56.880;16.658;2023-08-06T09:35:28;16.80;99.90
26907;DHT22;14472;56.880;16.658;2023-08-06T09:37:55;16.70;77.40
26907;DHT22;14472;56.880;16.658;2023-08-06T09:40:31;16.60;93.30
26907;DHT22;14472;56.880;16.658;2023-08-06T09:42:57;16.60;99.90
26907;DHT22;14472;56.880;16.658;2023-08-06T09:45:30;16.70;99.90
26907;DHT22;14472;56.880;16.658;2023-08-06T09:47:57;16.60;99.90
26907;DHT22;14472;56.880;16.658;2023-08-06T09:50:29;16.50;99.90
26907;DHT22;14472;56.880;16.658;2023-08-06T09:52:56;16.60;99.90
26907;DHT22;14472;56.880;16.658;2023-08-06T09:55:23;16.60;99.90
26907;DHT22;14472;56.880;16.658;2023-08-06T09:57:50;16.60;99.90
26907;DHT22;14472;56.880;16.658;2023-08-06T10:00:16;16.50;99.90
26907;DHT22;14472;56.880;16.658;2023-08-06T10:02:43;16.50;99.90
26907;DHT22;14472;56.880;16.658;2023-08-06T10:05:09;16.50;99.90
26907;DHT22;14472;56.880;16.658;2023-08-06T10:07:36;16.50;99.90
26907;DHT22;14472;56.880;16.658;2023-08-06T10:10:02;16.50;99.90
26907;DHT22;14472;56.880;16.658;2023-08-06T10:12:32;16.50;99.90
26907;DHT22;14472;56.880;16.658;2023-08-06T10:15:01;16.50;99.90
26907;DHT22;14472;56.880;16.658;2023-08-06T10:17:28;16.50;99.90
26907;DHT22;14472;56.880;16.658;2023-08-06T10:19:54;16.50;99.90
26907;DHT22;14472;56.880;16.658;2023-08-06T10:22:21;16.50;99.90
26907;DHT22;14472;56.880;16.658;2023-08-06T10:24:56;16.50;99.90
26907;DHT22;14472;56.880;16.658;2023-08-06T10:27:39;16.60;99.90
26907;DHT22;14472;56.880;16.658;2023-08-06T10:33:04;16.50;99.90
26907;DHT22;14472;56.880;16.658;2023-08-06T10:35:34;16.50;99.90
26907;DHT22;14472;56.880;16.658;2023-08-06T10:40:37;16.60;99.90
26907;DHT22;14472;56.880;16.658;2023-08-06T10:43:05;16.60;99.90
26907;DHT22;14472;56.880;16.658;2023-08-06T10:45:37;16.60;99.90
26907;DHT22;14472;56.880;16.658;2023-08-06T10:48:04;16.60;99.90
26907;DHT22;14472;56.880;16.658;2023-08-06T10:50:30;16.60;99.90
26907;DHT22;14472;56.880;16.658;2023-08-06T10:52:57;16.60;99.90
26907;DHT22;14472;56.880;16.658;2023-08-06T10:55:28;16.60;99.90
26907;DHT22;14472;56.880;16.658;2023-08-06T10:57:55;16.60;99.90
26907;DHT22;14472;56.880;16.658;2023-08-06T11:00:22;16.60;99.90
26907;DHT22;14472;56.880;16.658;2023-08-06T11:02:49;16.60;99.90
26907;DHT22;14472;56.880;16.658;2023-08-06T11:05:15;16.60;99.90
26907;DHT22;14472;56.880;16.658;2023-08-06T11:07:41;16.60;99.90
26907;DHT22;14472;56.880;16.658;2023-08-06T11:10:10;16.60;99.90
26907;DHT22;14472;56.880;16.658;2023-08-06T11:12:36;16.60;99.90
26907;DHT22;14472;56.880;16.658;2023-08-06T11:15:03;16.50;99.90
26907;DHT22;14472;56.880;16.658;2023-08-06T11:17:30;16.50;99.90
26907;DHT22;14472;56.880;16.658;2023-08-06T11:19:59;16.50;99.90
26907;DHT22;14472;56.880;16.658;2023-08-06T11:22:25;16.50;99.90
26907;DHT22;14472;56.880;16.658;2023-08-06T11:24:51;16.60;99.90
26907;DHT22;14472;56.880;16.658;2023-08-06T11:27:17;16.60;99.90
26907;DHT22;14472;56.880;16.658;2023-08-06T11:29:44;16.60;99.90
26907;DHT22;14472;56.880;16.658;2023-08-06T11:32:10;16.60;99.90
26907;DHT22;14472;56.880;16.658;2023-08-06T11:34:37;16.60;99.90
26907;DHT22;14472;56.880;16.658;2023-08-06T11:37:04;16.60;99.90
26907;DHT22;14472;56.880;16.658;2023-08-06T11:39:32;16.50;99.90
26907;DHT22;14472;56.880;16.658;2023-08-06T11:41:58;16.50;99.90
26907;DHT22;14472;56.880;16.658;2023-08-06T11:44:26;16.50;99.90
26907;DHT22;14472;56.880;16.658;2023-08-06T11:46:52;16.50;99.90
26907;DHT22;14472;56.880;16.658;2023-08-06T11:49:18;16.60;99.90
26907;DHT22;14472;56.880;16.658;2023-08-06T11:51:48;16.50;99.90
26907;DHT22;14472;56.880;16.658;2023-08-06T11:54:13;16.50;99.90
26907;DHT22;14472;56.880;16.658;2023-08-06T11:56:39;16.50;99.90
26907;DHT22;14472;56.880;16.658;2023-08-06T11:59:05;16.50;99.90
26907;DHT22;14472;56.880;16.658;2023-08-06T12:01:32;16.50;99.90
26907;DHT22;14472;56.880;16.658;2023-08-06T12:04:00;16.50;99.90
26907;DHT22;14472;56.880;16.658;2023-08-06T12:06:29;16.50;99.90
26907;DHT22;14472;56.880;16.658;2023-08-06T12:08:55;16.50;99.90
26907;DHT22;14472;56.880;16.658;2023-08-06T12:11:21;16.50;99.90
26907;DHT22;14472;56.880;16.658;2023-08-06T12:13:51;16.50;99.90
26907;DHT22;14472;56.880;16.658;2023-08-06T12:16:17;16.50;99.90
26907;DHT22;14472;56.880;16.658;2023-08-06T12:18:44;16.50;99.90
26907;DHT22;14472;56.880;16.658;2023-08-06T12:21:10;16.50;99.90
26907;DHT22;14472;56.880;16.658;2023-08-06T12:23:36;16.50;99.90
26907;DHT22;14472;56.880;16.658;2023-08-06T12:26:02;16.50;99.90
26907;DHT22;14472;56.880;16.658;2023-08-06T12:28:27;16.50;99.90
26907;DHT22;14472;56.880;16.658;2023-08-06T12:30:53;16.50;99.90
26907;DHT22;14472;56.880;16.658;2023-08-06T12:33:20;16.50;99.90
26907;DHT22;14472;56.880;16.658;2023-08-06T12:35:46;16.60;99.90
26907;DHT22;14472;56.880;16.658;2023-08-06T12:38:12;16.60;99.90
26907;DHT22;14472;56.880;16.658;2023-08-06T12:40:39;16.60;99.90
26907;DHT22;14472;56.880;16.658;2023-08-06T12:43:04;16.60;99.90
26907;DHT22;14472;56.880;16.658;2023-08-06T12:45:30;16.70;99.90
26907;DHT22;14472;56.880;16.658;2023-08-06T12:47:56;16.70;99.90
26907;DHT22;14472;56.880;16.658;2023-08-06T12:50:21;16.70;99.90
26907;DHT22;14472;56.880;16.658;2023-08-06T12:52:47;16.80;99.90
26907;DHT22;14472;56.880;16.658;2023-08-06T12:55:13;16.80;99.90
26907;DHT22;14472;56.880;16.658;2023-08-06T12:57:39;16.80;99.90
26907;DHT22;14472;56.880;16.658;2023-08-06T13:00:05;16.80;99.90
26907;DHT22;14472;56.880;16.658;2023-08-06T13:02:31;16.80;99.90
26907;DHT22;14472;56.880;16.658;2023-08-06T13:04:56;16.80;99.90
26907;DHT22;14472;56.880;16.658;2023-08-06T13:07:23;16.90;99.90
26907;DHT22;14472;56.880;16.658;2023-08-06T13:09:49;16.90;99.90
26907;DHT22;14472;56.880;16.658;2023-08-06T13:12:14;16.90;99.90
26907;DHT22;14472;56.880;16.658;2023-08-06T13:14:40;16.80;99.90
26907;DHT22;14472;56.880;16.658;2023-08-06T13:17:06;16.90;99.90
26907;DHT22;14472;56.880;16.658;2023-08-06T13:19:32;16.90;99.90
26907;DHT22;14472;56.880;16.658;2023-08-06T13:22:01;16.90;99.90
26907;DHT22;14472;56.880;16.658;2023-08-06T13:24:28;16.90;99.90
26907;DHT22;14472;56.880;16.658;2023-08-06T13:26:54;16.90;99.90
26907;DHT22;14472;56.880;16.658;2023-08-06T13:29:20;16.90;99.90
26907;DHT22;14472;56.880;16.658;2023-08-06T13:31:45;16.90;99.90
26907;DHT22;14472;56.880;16.658;2023-08-06T13:34:11;16.90;99.90
26907;DHT22;14472;56.880;16.658;2023-08-06T13:36:37;16.90;99.90
26907;DHT22;14472;56.880;16.658;2023-08-06T13:39:03;16.80;99.90
26907;DHT22;14472;56.880;16.658;2023-08-06T13:41:31;16.90;99.90
26907;DHT22;14472;56.880;16.658;2023-08-06T13:43:57;16.90;99.90
26907;DHT22;14472;56.880;16.658;2023-08-06T13:46:22;16.80;99.90
26907;DHT22;14472;56.880;16.658;2023-08-06T13:48:48;16.80;99.90
26907;DHT22;14472;56.880;16.658;2023-08-06T13:51:17;16.90;99.90
26907;DHT22;14472;56.880;16.658;2023-08-06T13:53:43;16.90;99.90
26907;DHT22;14472;56.880;16.658;2023-08-06T13:56:09;16.90;99.90
26907;DHT22;14472;56.880;16.658;2023-08-06T13:58:36;16.90;99.90
26907;DHT22;14472;56.880;16.658;2023-08-06T14:01:03;17.00;99.90
26907;DHT22;14472;56.880;16.658;2023-08-06T14:03:28;17.00;99.90
26907;DHT22;14472;56.880;16.658;2023-08-06T14:05:54;17.00;99.90
26907;DHT22;14472;56.880;16.658;2023-08-06T14:08:23;16.90;99.90
26907;DHT22;14472;56.880;16.658;2023-08-06T14:10:50;16.90;99.90
26907;DHT22;14472;56.880;16.658;2023-08-06T14:13:16;16.90;99.90
26907;DHT22;14472;56.880;16.658;2023-08-06T14:15:42;16.90;99.90
26907;DHT22;14472;56.880;16.658;2023-08-06T14:18:12;16.90;99.90
26907;DHT22;14472;56.880;16.658;2023-08-06T14:20:38;16.90;99.90
26907;DHT22;14472;56.880;16.658;2023-08-06T14:23:04;16.90;99.90
26907;DHT22;14472;56.880;16.658;2023-08-06T14:25:30;16.80;99.90
26907;DHT22;14472;56.880;16.658;2023-08-06T14:27:55;16.80;99.90
26907;DHT22;14472;56.880;16.658;2023-08-06T14:30:21;16.80;99.90
26907;DHT22;14472;56.880;16.658;2023-08-06T14:32:47;16.80;99.90
26907;DHT22;14472;56.880;16.658;2023-08-06T14:35:12;16.80;99.90
26907;DHT22;14472;56.880;16.658;2023-08-06T14:37:39;16.80;99.90
26907;DHT22;14472;56.880;16.658;2023-08-06T14:40:06;16.70;99.90
26907;DHT22;14472;56.880;16.658;2023-08-06T14:42:32;16.70;99.90
26907;DHT22;14472;56.880;16.658;2023-08-06T14:44:58;16.70;99.90
26907;DHT22;14472;56.880;16.658;2023-08-06T14:47:24;16.70;99.90
26907;DHT22;14472;56.880;16.658;2023-08-06T14:49:49;16.60;99.90
26907;DHT22;14472;56.880;16.658;2023-08-06T14:52:16;16.60;99.90
26907;DHT22;14472;56.880;16.658;2023-08-06T14:54:42;16.60;99.90
26907;DHT22;14472;56.880;16.658;2023-08-06T14:57:09;16.60;99.90
26907;DHT22;14472;56.880;16.658;2023-08-06T14:59:36;16.60;99.90
26907;DHT22;14472;56.880;16.658;2023-08-06T15:02:01;16.50;99.90
26907;DHT22;14472;56.880;16.658;2023-08-06T15:04:27;16.50;99.90
26907;DHT22;14472;56.880;16.658;2023-08-06T15:06:54;16.50;99.90
26907;DHT22;14472;56.880;16.658;2023-08-06T15:09:19;16.50;99.90
26907;DHT22;14472;56.880;16.658;2023-08-06T15:11:47;16.50;99.90
26907;DHT22;14472;56.880;16.658;2023-08-06T15:14:13;16.40;99.90
26907;DHT22;14472;56.880;16.658;2023-08-06T15:16:40;16.40;99.90
26907;DHT22;14472;56.880;16.658;2023-08-06T15:19:06;16.40;99.90